الصفحة الرئيسية
METAR-TAF:

METAR-TAF

مطار :

فور دو فرانس, مارتينيك

دائرة عرض: 14-36N, خط طول: 061-00W, ارتفاع: 5 متر

مراقبة الطقس الحالي

تاريخ ووقت الإصدار 20 دقيقة قبل الساعة 11:00UTC
ريح 7 عقدة من الشرق
درجة الحرارة 25°درجة مئوية
الرطوبة 89%
ضغط 1015 hPa
الرؤية 10 كم أو أكثر
غيوم قليلة على ارتفاع 2100 قدم
غيوم متفرقة على ارتفاع 3700 قدم

METAR: TFFF 161100Z AUTO 10007KT 9999 FEW021 SCT037 25/23 Q1015 TEMPO 4000 SHRA FEW018TCU

زمن: 07:20 (11:20 UTC)

توقعات

تاريخ ووقت الإصدار 6ساعات و 20 دقيقة قبل الساعة 05:00UTC
التوقعات صالحة من16 الساعة 06 UTC إلى 17 الساعة 06 UTC
ريح 7 عقدة من الشرق
الرؤية 10 كم أو أكثر
غيوم متفرقة على ارتفاع 2800 قدم
مؤقت
من 16 الساعة 06 UTC إلى 16 الساعة 18 UTC
الرؤية: 4000 متر
غيوم قليلة على ارتفاع 1800 قدم, مزن ركامية عمودية.
زخات من المطر

TAF: TFFF 160500Z 1606/1706 09007KT 9999 SCT028 TEMPO 1606/1618 4000 SHRA FEW018TCU

أرصاد الطقس والتوقعات من أكثر من 4000 مطار (تقارير الطقس للمطار METAR والتنبؤ بالطقس بالمطارTAF).

المحطات المتاحة هي النقط الصفراء والحمراء على الخريطة.

حرك المؤشر فوق النقطة لمعرفة اسم المحطة.

ثم انقر لمعرفة أرصاد وتوقعات الطقس.

لتغيير الخارطة: اضغط على الأزرار الخضراء مع رمز الصليب الأسود للتكبير. على الزر الأخضر مع شرطة للتصغير، أو على الأسهم الخضراء للخرائط المجاورة.


METAR-TAF: